Time;durP1;ratioP1;P1;durP2;ratioP2;P2;SDS_P1;SDS_P2;PMS_P1;PMS_P2;Temp;Humidity;BMP_temperature;BMP_pressure;BME280_temperature;BME280_humidity;BME280_pressure;Samples;Min_cycle;Max_cycle;Signal;HPM_P1;HPM_P2
2023/03/16 00:01:46;;;;;;;8.73;8.32;;;;;;;;;;5061654;28;20033;-63
2023/03/16 00:04:11;;;;;;;8.50;8.10;;;;;;;;;;5082749;28;20040;-63
2023/03/16 00:06:37;;;;;;;8.70;8.30;;;;;;;;;;5064965;28;20596;-64
2023/03/16 00:09:02;;;;;;;8.70;8.30;;;;;;;;;;5070094;28;20521;-63
2023/03/16 00:11:28;;;;;;;9.00;8.60;;;;;;;;;;5067941;28;20091;-63
2023/03/16 00:13:53;;;;;;;8.50;8.10;;;;;;;;;;5070307;28;20055;-64
2023/03/16 00:16:18;;;;;;;8.70;8.30;;;;;;;;;;5071326;28;20020;-63
2023/03/16 00:18:44;;;;;;;9.65;9.15;;;;;;;;;;5069222;28;20028;-63
2023/03/16 00:21:10;;;;;;;8.90;8.50;;;;;;;;;;5071184;28;20024;-63
2023/03/16 00:23:35;;;;;;;8.70;8.30;;;;;;;;;;5071512;28;20029;-62
2023/03/16 00:26:03;;;;;;;8.40;8.00;;;;;;;;;;5064955;28;20150;-64
2023/03/16 00:28:33;;;;;;;8.80;8.40;;;;;;;;;;5070471;28;20025;-63
2023/03/16 00:30:59;;;;;;;9.10;8.65;;;;;;;;;;5074552;28;20036;-63
2023/03/16 00:33:25;;;;;;;8.90;8.50;;;;;;;;;;5072703;28;20529;-63
2023/03/16 00:36:00;;;;;;;8.60;8.20;;;;;;;;;;5069103;28;20032;-63
2023/03/16 00:38:26;;;;;;;8.30;7.90;;;;;;;;;;5062633;28;20017;-65
2023/03/16 00:40:52;;;;;;;8.88;8.48;;;;;;;;;;5066099;28;20055;-64
2023/03/16 00:43:17;;;;;;;8.90;8.50;;;;;;;;;;5074937;28;20040;-64
2023/03/16 00:45:43;;;;;;;9.27;8.77;;;;;;;;;;5069574;28;20037;-64
2023/03/16 00:48:10;;;;;;;9.05;8.63;;;;;;;;;;5074615;28;20013;-64
2023/03/16 00:50:35;;;;;;;8.60;8.20;;;;;;;;;;5057958;28;20033;-64
2023/03/16 00:53:00;;;;;;;8.48;8.07;;;;;;;;;;5072792;28;20024;-63
2023/03/16 00:55:26;;;;;;;9.20;8.70;;;;;;;;;;5072869;28;20013;-63
2023/03/16 00:57:51;;;;;;;9.57;9.07;;;;;;;;;;5074558;28;20056;-63
2023/03/16 01:00:19;;;;;;;8.75;8.35;;;;;;;;;;5074945;28;20009;-63
2023/03/16 01:02:45;;;;;;;8.55;8.15;;;;;;;;;;5068942;28;20136;-63
2023/03/16 01:05:11;;;;;;;8.82;8.43;;;;;;;;;;5059257;28;20519;-63
2023/03/16 01:07:37;;;;;;;8.98;8.57;;;;;;;;;;5072880;28;20048;-62
2023/03/16 01:10:02;;;;;;;9.35;8.85;;;;;;;;;;5072856;28;20055;-63
2023/03/16 01:12:28;;;;;;;8.48;8.07;;;;;;;;;;5084455;28;20433;-64
2023/03/16 01:14:54;;;;;;;8.80;8.40;;;;;;;;;;5074439;28;20535;-63
2023/03/16 01:17:21;;;;;;;8.32;7.93;;;;;;;;;;5074693;28;20028;-63
2023/03/16 01:19:47;;;;;;;8.90;8.50;;;;;;;;;;5073987;28;20025;-65
2023/03/16 01:22:12;;;;;;;9.63;9.13;;;;;;;;;;5073269;28;20078;-64
2023/03/16 01:24:38;;;;;;;9.02;8.57;;;;;;;;;;5071868;28;20016;-64
2023/03/16 01:27:03;;;;;;;8.20;7.80;;;;;;;;;;5064397;28;20027;-64
2023/03/16 01:29:29;;;;;;;8.75;8.35;;;;;;;;;;5072986;28;20107;-64
2023/03/16 01:31:54;;;;;;;8.60;8.20;;;;;;;;;;5074320;28;20378;-63
2023/03/16 01:34:20;;;;;;;8.80;8.40;;;;;;;;;;5074104;28;20024;-63
2023/03/16 01:36:46;;;;;;;8.85;8.45;;;;;;;;;;5071003;28;20066;-63
2023/03/16 01:39:12;;;;;;;9.00;8.60;;;;;;;;;;5073531;28;20096;-63
2023/03/16 01:41:38;;;;;;;8.95;8.55;;;;;;;;;;5073547;28;20111;-63
2023/03/16 01:44:03;;;;;;;8.93;8.52;;;;;;;;;;5067964;28;20032;-63
2023/03/16 01:46:29;;;;;;;8.82;8.43;;;;;;;;;;5066550;28;20359;-62
2023/03/16 01:48:54;;;;;;;8.95;8.55;;;;;;;;;;5073783;28;20025;-63
2023/03/16 01:51:26;;;;;;;8.80;8.40;;;;;;;;;;5072630;28;20013;-63
2023/03/16 01:53:54;;;;;;;8.50;8.10;;;;;;;;;;5074129;28;20031;-63
2023/03/16 01:56:23;;;;;;;9.00;8.60;;;;;;;;;;5060868;28;20044;-64
2023/03/16 01:58:50;;;;;;;9.30;8.80;;;;;;;;;;5069409;28;20113;-63
2023/03/16 02:01:16;;;;;;;8.85;8.45;;;;;;;;;;5065123;28;20025;-64
2023/03/16 02:03:42;;;;;;;8.70;8.30;;;;;;;;;;5073944;28;20074;-64
2023/03/16 02:06:10;;;;;;;8.73;8.32;;;;;;;;;;5074049;28;20020;-64
2023/03/16 02:08:36;;;;;;;8.90;8.50;;;;;;;;;;5073550;28;20016;-64
2023/03/16 02:11:03;;;;;;;8.95;8.55;;;;;;;;;;5072064;28;20067;-64
2023/03/16 02:13:32;;;;;;;9.38;8.88;;;;;;;;;;5072889;28;20207;-63
2023/03/16 02:15:58;;;;;;;8.32;7.93;;;;;;;;;;5066205;28;20476;-63
2023/03/16 02:18:23;;;;;;;9.20;8.73;;;;;;;;;;5075013;28;20035;-63
2023/03/16 02:20:56;;;;;;;8.80;8.40;;;;;;;;;;5073447;28;20016;-63
2023/03/16 02:23:22;;;;;;;8.82;8.43;;;;;;;;;;5067942;28;20074;-64
2023/03/16 02:26:00;;;;;;;8.80;8.40;;;;;;;;;;5072771;28;20484;-63
2023/03/16 02:28:33;;;;;;;8.88;8.48;;;;;;;;;;5072028;28;20021;-63
2023/03/16 02:30:58;;;;;;;8.75;8.35;;;;;;;;;;5061685;28;20020;-64
2023/03/16 02:33:24;;;;;;;9.82;9.32;;;;;;;;;;5060271;28;20476;-63
2023/03/16 02:35:49;;;;;;;8.70;8.30;;;;;;;;;;5073429;28;20024;-63
2023/03/16 02:38:15;;;;;;;8.80;8.40;;;;;;;;;;5072945;28;20024;-64
2023/03/16 02:40:42;;;;;;;9.07;8.68;;;;;;;;;;5072810;28;20063;-64
2023/03/16 02:43:08;;;;;;;8.55;8.15;;;;;;;;;;5072938;28;20376;-64
2023/03/16 02:45:36;;;;;;;9.38;8.88;;;;;;;;;;5071943;28;20031;-63
2023/03/16 02:48:04;;;;;;;8.63;8.23;;;;;;;;;;5063994;28;20043;-63
2023/03/16 02:50:29;;;;;;;9.15;8.73;;;;;;;;;;5071571;28;20025;-63
2023/03/16 02:52:54;;;;;;;8.60;8.20;;;;;;;;;;5074429;28;20435;-64
2023/03/16 02:55:20;;;;;;;8.35;7.95;;;;;;;;;;5066117;28;20021;-64
2023/03/16 02:57:46;;;;;;;9.30;8.80;;;;;;;;;;5070484;28;20040;-64
2023/03/16 03:00:16;;;;;;;9.02;8.63;;;;;;;;;;5063662;28;20029;-64
2023/03/16 03:02:41;;;;;;;9.48;8.98;;;;;;;;;;5071683;28;20028;-64
2023/03/16 03:05:06;;;;;;;8.82;8.43;;;;;;;;;;5072846;28;20013;-63
2023/03/16 03:07:32;;;;;;;9.95;9.40;;;;;;;;;;5066251;28;20025;-64
2023/03/16 03:09:57;;;;;;;9.40;8.90;;;;;;;;;;5072569;28;20038;-64
2023/03/16 03:12:22;;;;;;;8.77;8.38;;;;;;;;;;5058873;28;20544;-63
2023/03/16 03:14:48;;;;;;;9.50;9.00;;;;;;;;;;5066558;28;20028;-63
2023/03/16 03:17:13;;;;;;;8.80;8.40;;;;;;;;;;5072133;28;20029;-63
2023/03/16 03:19:38;;;;;;;9.27;8.77;;;;;;;;;;5071011;28;20025;-63
2023/03/16 03:22:05;;;;;;;9.15;8.65;;;;;;;;;;5071816;28;20024;-63
2023/03/16 03:24:33;;;;;;;9.35;8.85;;;;;;;;;;5070330;28;20021;-63
2023/03/16 03:26:59;;;;;;;8.73;8.32;;;;;;;;;;5073033;28;20325;-64
2023/03/16 03:29:33;;;;;;;8.30;7.93;;;;;;;;;;5061935;28;20028;-65
2023/03/16 03:32:07;;;;;;;8.77;8.38;;;;;;;;;;5071865;28;20487;-64
2023/03/16 03:34:33;;;;;;;;;;;;;;;;;;5072030;28;20032;-63
2023/03/16 03:36:58;;;;;;;8.38;7.97;;;;;;;;;;5071093;28;19991;-64
2023/03/16 03:39:24;;;;;;;8.90;8.50;;;;;;;;;;5070730;28;20112;-64
2023/03/16 03:41:53;;;;;;;8.70;8.30;;;;;;;;;;5069930;28;20032;-63
2023/03/16 03:44:19;;;;;;;8.80;8.40;;;;;;;;;;5071297;28;20459;-63
2023/03/16 03:46:44;;;;;;;9.25;8.75;;;;;;;;;;5071714;28;20099;-63
2023/03/16 03:49:10;;;;;;;8.70;8.30;;;;;;;;;;5067226;28;20109;-63
2023/03/16 03:51:35;;;;;;;9.05;8.63;;;;;;;;;;5057455;28;20017;-63
2023/03/16 03:54:00;;;;;;;8.70;8.30;;;;;;;;;;5064294;28;20032;-64
2023/03/16 03:56:26;;;;;;;9.70;9.20;;;;;;;;;;5060397;28;20052;-64
2023/03/16 03:58:51;;;;;;;9.00;8.60;;;;;;;;;;5070009;28;20050;-64
2023/03/16 04:01:16;;;;;;;8.80;8.40;;;;;;;;;;5066005;28;20016;-63
2023/03/16 04:03:42;;;;;;;8.90;8.50;;;;;;;;;;5054400;28;20013;-64
2023/03/16 04:06:07;;;;;;;8.85;8.45;;;;;;;;;;5066287;28;20019;-64
2023/03/16 04:08:33;;;;;;;9.13;8.65;;;;;;;;;;5069748;28;20498;-64
2023/03/16 04:11:00;;;;;;;9.00;8.57;;;;;;;;;;5076742;28;20012;-64
2023/03/16 04:13:25;;;;;;;8.85;8.45;;;;;;;;;;5078400;28;20020;-63
2023/03/16 04:15:57;;;;;;;8.60;8.20;;;;;;;;;;5078102;28;20460;-64
2023/03/16 04:18:24;;;;;;;8.90;8.50;;;;;;;;;;5078628;28;20468;-65
2023/03/16 04:20:52;;;;;;;8.73;8.32;;;;;;;;;;5067862;28;20017;-64
2023/03/16 04:23:18;;;;;;;9.75;9.23;;;;;;;;;;5074739;28;20021;-63
2023/03/16 04:25:44;;;;;;;8.80;8.40;;;;;;;;;;5069548;28;20031;-64
2023/03/16 04:28:09;;;;;;;8.55;8.15;;;;;;;;;;5071943;28;20052;-63
2023/03/16 04:30:35;;;;;;;9.25;8.75;;;;;;;;;;5071671;28;20070;-65
2023/03/16 04:33:00;;;;;;;8.75;8.35;;;;;;;;;;5077889;28;20480;-64
2023/03/16 04:35:25;;;;;;;9.48;8.98;;;;;;;;;;5080637;28;20030;-65
2023/03/16 04:37:51;;;;;;;8.85;8.45;;;;;;;;;;5077750;28;20028;-63
2023/03/16 04:40:16;;;;;;;9.20;8.70;;;;;;;;;;5074284;28;20028;-64
2023/03/16 04:42:45;;;;;;;8.73;8.32;;;;;;;;;;5086671;28;20073;-64
2023/03/16 04:45:11;;;;;;;8.98;8.57;;;;;;;;;;5074154;28;20008;-64
2023/03/16 04:47:37;;;;;;;9.30;8.80;;;;;;;;;;5072871;28;20024;-65
2023/03/16 04:50:02;;;;;;;9.52;9.02;;;;;;;;;;5073730;27;20082;-63
2023/03/16 04:52:28;;;;;;;8.48;8.07;;;;;;;;;;5084070;28;20024;-63
2023/03/16 04:54:53;;;;;;;9.25;8.75;;;;;;;;;;5070837;28;20021;-63
2023/03/16 04:57:18;;;;;;;9.20;8.70;;;;;;;;;;5089079;28;20060;-64
2023/03/16 04:59:44;;;;;;;9.68;9.18;;;;;;;;;;5077599;28;20027;-63
2023/03/16 05:02:09;;;;;;;8.85;8.45;;;;;;;;;;5075665;28;20059;-63
2023/03/16 05:04:35;;;;;;;8.82;8.43;;;;;;;;;;5077629;28;20169;-64
2023/03/16 05:07:00;;;;;;;9.38;8.88;;;;;;;;;;5071922;28;20024;-64
2023/03/16 05:09:25;;;;;;;9.55;9.05;;;;;;;;;;5078510;28;20066;-63
2023/03/16 05:11:51;;;;;;;9.75;9.25;;;;;;;;;;5074144;28;20395;-63
2023/03/16 05:14:16;;;;;;;9.02;8.60;;;;;;;;;;5065565;28;20033;-64
2023/03/16 05:16:43;;;;;;;8.90;8.50;;;;;;;;;;5065445;28;20042;-63
2023/03/16 05:19:08;;;;;;;9.68;9.18;;;;;;;;;;5071920;28;20025;-63
2023/03/16 05:21:36;;;;;;;8.88;8.48;;;;;;;;;;5058836;28;20036;-64
2023/03/16 05:24:01;;;;;;;9.15;8.70;;;;;;;;;;5071559;28;20464;-64
2023/03/16 05:26:28;;;;;;;9.60;9.10;;;;;;;;;;5074546;28;20130;-65
2023/03/16 05:28:57;;;;;;;9.23;8.73;;;;;;;;;;5073919;28;20099;-64
2023/03/16 05:31:25;;;;;;;9.55;9.05;;;;;;;;;;5073997;28;20021;-63
2023/03/16 05:33:52;;;;;;;8.75;8.35;;;;;;;;;;5073197;28;20029;-64
2023/03/16 05:36:17;;;;;;;9.32;8.82;;;;;;;;;;5070739;28;20557;-63
2023/03/16 05:38:44;;;;;;;9.63;9.13;;;;;;;;;;5068809;28;20025;-62
2023/03/16 05:41:09;;;;;;;9.60;9.10;;;;;;;;;;5068079;28;20035;-62
2023/03/16 05:43:35;;;;;;;10.18;9.57;;;;;;;;;;5073566;28;20050;-63
2023/03/16 05:46:00;;;;;;;8.90;8.50;;;;;;;;;;5073703;28;20448;-61
2023/03/16 05:48:25;;;;;;;9.35;8.85;;;;;;;;;;5074672;28;20016;-62
2023/03/16 05:50:51;;;;;;;9.52;9.02;;;;;;;;;;5069089;28;20016;-62
2023/03/16 05:53:16;;;;;;;8.85;8.45;;;;;;;;;;5069516;28;20485;-63
2023/03/16 05:55:42;;;;;;;9.07;8.65;;;;;;;;;;5080452;28;20024;-63
2023/03/16 05:58:07;;;;;;;8.90;8.50;;;;;;;;;;5056567;28;20044;-64
2023/03/16 06:00:32;;;;;;;8.98;8.57;;;;;;;;;;5069955;28;20020;-64
2023/03/16 06:02:58;;;;;;;9.48;8.98;;;;;;;;;;5072374;28;20092;-63
2023/03/16 06:05:24;;;;;;;9.55;9.05;;;;;;;;;;5072744;28;20071;-64
2023/03/16 06:07:49;;;;;;;9.07;8.68;;;;;;;;;;5068663;28;20081;-63
2023/03/16 06:10:15;;;;;;;9.15;8.75;;;;;;;;;;5072396;28;20021;-64
2023/03/16 06:12:40;;;;;;;9.45;8.95;;;;;;;;;;5075605;28;20388;-64
2023/03/16 06:15:06;;;;;;;9.50;9.00;;;;;;;;;;5075576;28;20021;-63
2023/03/16 06:17:32;;;;;;;10.45;9.85;;;;;;;;;;5077741;28;20029;-65
2023/03/16 06:19:57;;;;;;;9.35;8.85;;;;;;;;;;5074908;28;20077;-62
2023/03/16 06:22:24;;;;;;;9.25;8.75;;;;;;;;;;5077663;28;20028;-64
2023/03/16 06:24:50;;;;;;;11.40;10.70;;;;;;;;;;5072449;28;20013;-63
2023/03/16 06:27:15;;;;;;;9.27;8.77;;;;;;;;;;5074285;28;20522;-63
2023/03/16 06:29:40;;;;;;;10.23;9.63;;;;;;;;;;5073249;28;20020;-62
2023/03/16 06:32:06;;;;;;;8.75;8.35;;;;;;;;;;5075440;28;20074;-62
2023/03/16 06:34:31;;;;;;;9.10;8.70;;;;;;;;;;5076201;28;20031;-60
2023/03/16 06:36:56;;;;;;;10.05;9.50;;;;;;;;;;5072368;28;20408;-62
2023/03/16 06:39:22;;;;;;;9.55;9.05;;;;;;;;;;5072670;28;20391;-63
2023/03/16 06:41:47;;;;;;;9.57;9.07;;;;;;;;;;5072045;28;20025;-62
2023/03/16 06:44:12;;;;;;;9.48;8.98;;;;;;;;;;5069709;28;20028;-62
2023/03/16 06:46:38;;;;;;;9.23;8.73;;;;;;;;;;5060605;28;20039;-63
2023/03/16 06:49:03;;;;;;;8.43;8.02;;;;;;;;;;5069393;28;20419;-63
2023/03/16 06:51:30;;;;;;;9.20;8.70;;;;;;;;;;5069400;28;20082;-64
2023/03/16 06:53:55;;;;;;;9.60;9.10;;;;;;;;;;5056308;28;20020;-63
2023/03/16 06:56:20;;;;;;;9.75;9.25;;;;;;;;;;5055717;28;20060;-64
2023/03/16 06:58:46;;;;;;;8.43;8.02;;;;;;;;;;5069805;28;20020;-62
2023/03/16 07:01:11;;;;;;;8.95;8.55;;;;;;;;;;5069750;28;20024;-63
2023/03/16 07:03:37;;;;;;;9.00;8.60;;;;;;;;;;5072259;28;20081;-63
2023/03/16 07:06:02;;;;;;;9.75;9.25;;;;;;;;;;5072026;28;20025;-63
2023/03/16 07:08:28;;;;;;;9.68;9.18;;;;;;;;;;5073127;28;20012;-63
2023/03/16 07:10:53;;;;;;;9.18;8.73;;;;;;;;;;5072095;28;20021;-63
2023/03/16 07:13:18;;;;;;;9.00;8.60;;;;;;;;;;5072065;28;20028;-63
2023/03/16 07:15:44;;;;;;;9.10;8.63;;;;;;;;;;5068607;28;20031;-63
2023/03/16 07:18:11;;;;;;;9.40;8.90;;;;;;;;;;5067989;28;20107;-64
2023/03/16 07:20:36;;;;;;;9.93;9.43;;;;;;;;;;5071933;28;20100;-64
2023/03/16 07:23:03;;;;;;;9.88;9.38;;;;;;;;;;5071776;28;20055;-63
2023/03/16 07:25:29;;;;;;;9.68;9.18;;;;;;;;;;5067696;28;20086;-64
2023/03/16 07:27:55;;;;;;;9.38;8.88;;;;;;;;;;5058565;28;20078;-65
2023/03/16 07:30:21;;;;;;;9.65;9.15;;;;;;;;;;5065179;28;20480;-66
2023/03/16 07:32:46;;;;;;;9.98;9.45;;;;;;;;;;5069979;28;20563;-66
2023/03/16 07:35:11;;;;;;;9.05;8.57;;;;;;;;;;5070045;28;22994;-65
2023/03/16 07:37:37;;;;;;;8.88;8.48;;;;;;;;;;5076302;28;20031;-65
2023/03/16 07:40:03;;;;;;;9.32;8.82;;;;;;;;;;5062732;28;20047;-67
2023/03/16 07:42:29;;;;;;;11.05;10.35;;;;;;;;;;5067383;28;20039;-65
2023/03/16 07:44:56;;;;;;;9.80;9.30;;;;;;;;;;5083609;28;20103;-66
2023/03/16 07:47:21;;;;;;;9.27;8.77;;;;;;;;;;5076561;28;20074;-68
2023/03/16 07:49:46;;;;;;;9.35;8.85;;;;;;;;;;5080465;28;20013;-69
2023/03/16 07:52:12;;;;;;;9.75;9.25;;;;;;;;;;5073370;28;20032;-67
2023/03/16 07:54:38;;;;;;;9.57;9.07;;;;;;;;;;5076404;28;20111;-72
2023/03/16 07:57:03;;;;;;;9.57;9.07;;;;;;;;;;5072562;28;20507;-68
2023/03/16 07:59:29;;;;;;;10.23;9.63;;;;;;;;;;5067380;28;20021;-68
2023/03/16 08:01:54;;;;;;;10.40;9.80;;;;;;;;;;5075336;28;20080;-69
2023/03/16 08:04:21;;;;;;;9.43;8.93;;;;;;;;;;5077437;28;20386;-66
2023/03/16 08:06:46;;;;;;;9.70;9.20;;;;;;;;;;5073968;28;20028;-66
2023/03/16 08:09:12;;;;;;;9.50;9.00;;;;;;;;;;5074620;28;20817;-66
2023/03/16 08:11:37;;;;;;;9.60;9.10;;;;;;;;;;5058870;28;20559;-67
2023/03/16 08:14:04;;;;;;;9.55;9.05;;;;;;;;;;5064070;28;20092;-71
2023/03/16 08:16:30;;;;;;;9.77;9.27;;;;;;;;;;5060293;28;20028;-70
2023/03/16 08:18:56;;;;;;;8.85;8.45;;;;;;;;;;5074773;28;20074;-70
2023/03/16 08:21:21;;;;;;;9.65;9.15;;;;;;;;;;5068611;28;20024;-66
2023/03/16 08:23:51;;;;;;;9.70;9.20;;;;;;;;;;5069751;28;20688;-67
2023/03/16 08:26:17;;;;;;;9.75;9.25;;;;;;;;;;5070732;28;20482;-70
2023/03/16 08:28:44;;;;;;;9.23;8.73;;;;;;;;;;5083059;28;20095;-66
2023/03/16 08:31:11;;;;;;;8.70;8.30;;;;;;;;;;5070395;28;20032;-67
2023/03/16 08:33:37;;;;;;;9.18;8.68;;;;;;;;;;5063700;28;20013;-67
2023/03/16 08:36:04;;;;;;;8.80;8.40;;;;;;;;;;5066325;28;20031;-67
2023/03/16 08:38:29;;;;;;;9.38;8.90;;;;;;;;;;5059591;28;20115;-68
2023/03/16 08:40:56;;;;;;;8.70;8.30;;;;;;;;;;5064775;28;20129;-71
2023/03/16 08:43:22;;;;;;;9.25;8.75;;;;;;;;;;5068795;28;20074;-71
2023/03/16 08:45:48;;;;;;;10.75;10.15;;;;;;;;;;5065927;28;20103;-71
2023/03/16 08:48:13;;;;;;;9.20;8.70;;;;;;;;;;5061707;28;20111;-69
2023/03/16 08:50:40;;;;;;;9.52;9.02;;;;;;;;;;5070782;28;20017;-66
2023/03/16 08:53:05;;;;;;;10.45;9.85;;;;;;;;;;5074495;28;20036;-70
2023/03/16 08:55:31;;;;;;;9.48;8.98;;;;;;;;;;5068412;28;20016;-67
2023/03/16 08:57:56;;;;;;;9.60;9.10;;;;;;;;;;5070617;28;20049;-66
2023/03/16 09:00:22;;;;;;;9.27;8.77;;;;;;;;;;5078444;28;20024;-67
2023/03/16 09:02:47;;;;;;;11.35;10.65;;;;;;;;;;5058691;28;20108;-67
2023/03/16 09:05:13;;;;;;;11.00;10.32;;;;;;;;;;5073461;28;20021;-67
2023/03/16 09:07:39;;;;;;;9.80;9.30;;;;;;;;;;5070284;28;20024;-67
2023/03/16 09:10:10;;;;;;;10.60;10.00;;;;;;;;;;5078639;28;20506;-67
2023/03/16 09:12:36;;;;;;;10.68;10.07;;;;;;;;;;5070784;28;20042;-68
2023/03/16 09:15:02;;;;;;;11.07;10.40;;;;;;;;;;5071974;28;20056;-68
2023/03/16 09:17:27;;;;;;;12.35;11.55;;;;;;;;;;5070071;28;20516;-66
2023/03/16 09:19:54;;;;;;;10.43;9.82;;;;;;;;;;5069499;28;20023;-68
2023/03/16 09:22:19;;;;;;;11.45;10.75;;;;;;;;;;5073370;28;20108;-66
2023/03/16 09:24:45;;;;;;;10.73;10.13;;;;;;;;;;5066932;28;20165;-66
2023/03/16 09:27:10;;;;;;;10.55;9.95;;;;;;;;;;5074613;28;20563;-68
2023/03/16 09:29:36;;;;;;;10.27;9.68;;;;;;;;;;5080022;28;20543;-70
2023/03/16 09:32:02;;;;;;;10.38;9.77;;;;;;;;;;5068866;28;20029;-68
2023/03/16 09:34:28;;;;;;;10.23;9.63;;;;;;;;;;5075226;28;20028;-68
2023/03/16 09:36:54;;;;;;;11.18;10.48;;;;;;;;;;5076860;28;20021;-66
2023/03/16 09:39:19;;;;;;;9.57;9.07;;;;;;;;;;5068739;28;20736;-66
2023/03/16 09:41:48;;;;;;;10.40;9.80;;;;;;;;;;5079213;28;20050;-66
2023/03/16 09:44:14;;;;;;;9.65;9.15;;;;;;;;;;5081499;28;20028;-68
2023/03/16 09:46:44;;;;;;;9.40;8.90;;;;;;;;;;5080201;28;20024;-67
2023/03/16 09:49:11;;;;;;;10.25;9.65;;;;;;;;;;5077597;28;20013;-69
2023/03/16 09:51:47;;;;;;;10.80;10.18;;;;;;;;;;5072746;28;20028;-68
2023/03/16 09:54:19;;;;;;;11.05;10.40;;;;;;;;;;5074766;28;20393;-66
2023/03/16 09:56:45;;;;;;;11.10;10.43;;;;;;;;;;5057787;28;20056;-68
2023/03/16 09:59:12;;;;;;;11.18;10.48;;;;;;;;;;5076575;28;20115;-68
2023/03/16 10:01:40;;;;;;;10.75;10.15;;;;;;;;;;5066017;28;20039;-66
2023/03/16 10:04:15;;;;;;;10.95;10.32;;;;;;;;;;5074284;28;20024;-71
2023/03/16 10:06:47;;;;;;;10.40;9.80;;;;;;;;;;5067237;28;20571;-69
2023/03/16 10:09:15;;;;;;;10.68;10.07;;;;;;;;;;5057371;28;20021;-69
2023/03/16 10:11:47;;;;;;;11.32;10.63;;;;;;;;;;5081483;28;20029;-69
2023/03/16 10:14:21;;;;;;;10.70;10.10;;;;;;;;;;5068759;28;20025;-69
2023/03/16 10:16:56;;;;;;;10.25;9.65;;;;;;;;;;5076748;28;20024;-69
2023/03/16 10:19:31;;;;;;;10.40;9.80;;;;;;;;;;5072878;28;20499;-70
2023/03/16 10:21:59;;;;;;;10.48;9.88;;;;;;;;;;5066247;28;20020;-71
2023/03/16 10:24:34;;;;;;;10.55;9.95;;;;;;;;;;5068897;28;20484;-71
2023/03/16 10:27:01;;;;;;;10.23;9.63;;;;;;;;;;5061851;28;20020;-70
2023/03/16 10:29:29;;;;;;;10.35;9.75;;;;;;;;;;5066306;28;20086;-71
2023/03/16 10:32:01;;;;;;;10.93;10.30;;;;;;;;;;5067225;28;20021;-70
2023/03/16 10:34:26;;;;;;;10.57;9.98;;;;;;;;;;5074129;28;20028;-70
2023/03/16 10:36:53;;;;;;;11.20;10.50;;;;;;;;;;5073592;28;20087;-72
2023/03/16 10:39:18;;;;;;;10.43;9.82;;;;;;;;;;5071888;28;20032;-70
2023/03/16 10:41:45;;;;;;;10.32;9.73;;;;;;;;;;5080360;28;20021;-70
2023/03/16 10:44:14;;;;;;;10.40;9.80;;;;;;;;;;5075798;28;20415;-70
2023/03/16 10:46:40;;;;;;;12.48;11.68;;;;;;;;;;5069186;28;20403;-70
2023/03/16 10:49:18;;;;;;;10.30;9.70;;;;;;;;;;5058390;28;20067;-70
2023/03/16 10:51:43;;;;;;;10.45;9.85;;;;;;;;;;5062494;28;20103;-67
2023/03/16 10:54:14;;;;;;;11.35;10.65;;;;;;;;;;5074057;28;20562;-67
2023/03/16 10:56:39;;;;;;;10.90;10.27;;;;;;;;;;5075919;28;20090;-69
2023/03/16 10:59:22;;;;;;;9.82;9.32;;;;;;;;;;5073476;28;20060;-67
2023/03/16 11:01:48;;;;;;;10.65;10.05;;;;;;;;;;5071053;28;20028;-68
2023/03/16 11:04:16;;;;;;;11.77;11.05;;;;;;;;;;5063568;28;20493;-67
2023/03/16 11:06:51;;;;;;;11.25;10.55;;;;;;;;;;5062150;28;20047;-70
2023/03/16 11:09:22;;;;;;;10.27;9.68;;;;;;;;;;5073592;28;20028;-68
2023/03/16 11:11:48;;;;;;;10.38;9.77;;;;;;;;;;5067192;28;20024;-67
2023/03/16 11:14:14;;;;;;;10.82;10.20;;;;;;;;;;5073774;28;20380;-66
2023/03/16 11:16:49;;;;;;;11.00;10.35;;;;;;;;;;5068832;28;20020;-66
2023/03/16 11:19:20;;;;;;;10.60;10.00;;;;;;;;;;5063887;28;20482;-67
2023/03/16 11:21:48;;;;;;;11.90;11.15;;;;;;;;;;5076541;28;20028;-66
2023/03/16 11:24:36;;;;;;;10.30;9.70;;;;;;;;;;5076699;28;20024;-66
2023/03/16 11:27:04;;;;;;;9.07;8.63;;;;;;;;;;5063975;28;20016;-66
2023/03/16 11:29:44;;;;;;;10.82;10.23;;;;;;;;;;5064107;28;20100;-67
2023/03/16 11:32:15;;;;;;;11.38;10.68;;;;;;;;;;5058060;28;20028;-70
2023/03/16 11:34:42;;;;;;;10.65;10.05;;;;;;;;;;5068885;28;20355;-65
2023/03/16 11:37:07;;;;;;;10.65;10.05;;;;;;;;;;5070259;28;20027;-67
2023/03/16 11:39:39;;;;;;;10.15;9.60;;;;;;;;;;5059688;28;20043;-67
2023/03/16 11:42:08;;;;;;;10.93;10.30;;;;;;;;;;5066070;28;20028;-71
2023/03/16 11:44:36;;;;;;;10.75;10.15;;;;;;;;;;5065735;28;20024;-66
2023/03/16 11:47:20;;;;;;;10.85;10.25;;;;;;;;;;5067089;28;20060;-68
2023/03/16 11:50:06;;;;;;;11.65;10.95;;;;;;;;;;5065482;28;20016;-68
2023/03/16 11:52:34;;;;;;;9.90;9.38;;;;;;;;;;5064869;28;20124;-66
2023/03/16 11:55:00;;;;;;;9.80;9.30;;;;;;;;;;5073404;28;20098;-67
2023/03/16 11:57:26;;;;;;;10.00;9.50;;;;;;;;;;5072193;28;20519;-67
2023/03/16 11:59:54;;;;;;;10.52;9.93;;;;;;;;;;5071351;28;20028;-67
2023/03/16 12:02:22;;;;;;;10.82;10.23;;;;;;;;;;5061375;28;20229;-65
2023/03/16 12:04:54;;;;;;;12.68;11.82;;;;;;;;;;5056793;28;20013;-64
2023/03/16 12:07:38;;;;;;;9.93;9.43;;;;;;;;;;5062566;28;20021;-65
2023/03/16 12:10:05;;;;;;;9.18;8.68;;;;;;;;;;5075688;28;20156;-67
2023/03/16 12:12:33;;;;;;;9.02;8.63;;;;;;;;;;5065400;28;20378;-65
2023/03/16 12:15:15;;;;;;;9.50;9.00;;;;;;;;;;5087814;28;20021;-65
2023/03/16 12:17:41;;;;;;;10.32;9.73;;;;;;;;;;5073949;28;20032;-65
2023/03/16 12:20:17;;;;;;;9.15;8.68;;;;;;;;;;5068951;28;20115;-65
2023/03/16 12:22:48;;;;;;;9.02;8.60;;;;;;;;;;5065409;28;20032;-64
2023/03/16 12:25:22;;;;;;;9.10;8.70;;;;;;;;;;5073477;28;20024;-64
2023/03/16 12:27:49;;;;;;;9.30;8.80;;;;;;;;;;5075174;28;20016;-66
2023/03/16 12:30:24;;;;;;;9.00;8.60;;;;;;;;;;5078066;28;20020;-64
2023/03/16 12:33:16;;;;;;;9.82;9.32;;;;;;;;;;5085720;28;20032;-65
2023/03/16 12:35:41;;;;;;;9.73;9.23;;;;;;;;;;5070239;28;20032;-65
2023/03/16 12:38:25;;;;;;;8.95;8.55;;;;;;;;;;5075015;28;20157;-65
2023/03/16 12:41:11;;;;;;;9.07;8.60;;;;;;;;;;5066641;28;20372;-64
2023/03/16 12:43:48;;;;;;;11.00;10.35;;;;;;;;;;5069520;28;20107;-66
2023/03/16 12:46:17;;;;;;;9.45;8.95;;;;;;;;;;5072459;28;20024;-65
2023/03/16 12:48:47;;;;;;;8.73;8.32;;;;;;;;;;5071157;28;20020;-66
2023/03/16 12:51:13;;;;;;;9.57;9.07;;;;;;;;;;5068164;28;20031;-66
2023/03/16 12:53:56;;;;;;;8.95;8.55;;;;;;;;;;5074657;28;20099;-65
2023/03/16 12:56:31;;;;;;;8.60;8.20;;;;;;;;;;5066100;28;20127;-66
2023/03/16 12:59:01;;;;;;;9.45;8.95;;;;;;;;;;5072330;28;20021;-65
2023/03/16 13:01:30;;;;;;;9.48;8.98;;;;;;;;;;5074795;28;20027;-66
2023/03/16 13:04:00;;;;;;;10.63;10.02;;;;;;;;;;5068287;28;20028;-67
2023/03/16 13:06:30;;;;;;;9.77;9.27;;;;;;;;;;5081201;28;20474;-66
2023/03/16 13:09:00;;;;;;;11.25;10.55;;;;;;;;;;5073945;28;20071;-70
2023/03/16 13:11:26;;;;;;;10.55;9.95;;;;;;;;;;5066549;28;20047;-71
2023/03/16 13:14:00;;;;;;;11.60;10.90;;;;;;;;;;5072030;28;20031;-66
2023/03/16 13:16:27;;;;;;;10.80;10.20;;;;;;;;;;5059912;28;20564;-70
2023/03/16 13:18:53;;;;;;;10.85;10.25;;;;;;;;;;5070429;28;20074;-69
2023/03/16 13:21:20;;;;;;;10.68;10.07;;;;;;;;;;5071731;28;20028;-67
2023/03/16 13:23:54;;;;;;;10.30;9.70;;;;;;;;;;5069994;28;20478;-69
2023/03/16 13:26:31;;;;;;;10.63;10.02;;;;;;;;;;5073548;28;20048;-66
2023/03/16 13:28:57;;;;;;;11.18;10.48;;;;;;;;;;5064844;28;20025;-70
2023/03/16 13:31:30;;;;;;;10.18;9.57;;;;;;;;;;5065881;28;20023;-67
2023/03/16 13:33:58;;;;;;;10.45;9.85;;;;;;;;;;5080125;28;20434;-68
2023/03/16 13:36:25;;;;;;;10.57;9.98;;;;;;;;;;5058286;28;20027;-67
2023/03/16 13:39:03;;;;;;;10.63;10.02;;;;;;;;;;5055925;28;20058;-66
2023/03/16 13:41:29;;;;;;;10.27;9.68;;;;;;;;;;5057601;28;20032;-70
2023/03/16 13:43:55;;;;;;;10.52;9.93;;;;;;;;;;5065152;28;20051;-66
2023/03/16 13:46:25;;;;;;;10.35;9.75;;;;;;;;;;5063470;28;20439;-67
2023/03/16 13:48:51;;;;;;;10.85;10.25;;;;;;;;;;5059789;28;20458;-67
2023/03/16 13:51:17;;;;;;;10.43;9.82;;;;;;;;;;5064044;28;20025;-68
2023/03/16 13:53:43;;;;;;;10.43;9.82;;;;;;;;;;5069753;28;20376;-68
2023/03/16 13:56:12;;;;;;;10.55;9.95;;;;;;;;;;5067376;28;20047;-66
2023/03/16 13:58:39;;;;;;;10.30;9.70;;;;;;;;;;5062693;28;20045;-70
2023/03/16 14:01:10;;;;;;;10.48;9.88;;;;;;;;;;5058922;28;20499;-70
2023/03/16 14:03:37;;;;;;;10.27;9.68;;;;;;;;;;5069127;28;20050;-72
2023/03/16 14:06:06;;;;;;;11.40;10.70;;;;;;;;;;5060918;28;20078;-68
2023/03/16 14:08:32;;;;;;;9.98;9.43;;;;;;;;;;5057453;28;20880;-66
2023/03/16 14:10:59;;;;;;;9.63;9.13;;;;;;;;;;5066084;28;20025;-67
2023/03/16 14:13:37;;;;;;;10.40;9.80;;;;;;;;;;5063060;28;20031;-67
2023/03/16 14:16:10;;;;;;;11.15;10.45;;;;;;;;;;5069824;28;20075;-68
2023/03/16 14:18:42;;;;;;;10.97;10.30;;;;;;;;;;5072389;28;20047;-67
2023/03/16 14:21:19;;;;;;;12.35;11.55;;;;;;;;;;5058889;28;20079;-70
2023/03/16 14:24:05;;;;;;;10.25;9.65;;;;;;;;;;5056547;28;20621;-70
2023/03/16 14:26:41;;;;;;;10.85;10.23;;;;;;;;;;5066388;28;20028;-67
2023/03/16 14:29:13;;;;;;;10.48;9.88;;;;;;;;;;5063506;28;20028;-67
2023/03/16 14:31:39;;;;;;;11.25;10.55;;;;;;;;;;5066859;28;20107;-68
2023/03/16 14:34:24;;;;;;;10.55;9.95;;;;;;;;;;5056834;28;20103;-66
2023/03/16 14:36:50;;;;;;;10.15;9.57;;;;;;;;;;5063611;28;20083;-67
2023/03/16 14:39:18;;;;;;;10.38;9.77;;;;;;;;;;5055289;28;20143;-67